Time;durP1;ratioP1;P1;durP2;ratioP2;P2;SDS_P1;SDS_P2;PMS_P1;PMS_P2;Temp;Humidity;BMP_temperature;BMP_pressure;BME280_temperature;BME280_humidity;BME280_pressure;Samples;Min_cycle;Max_cycle;Signal;HPM_P1;HPM_P2
2021/08/05 00:01:18;;;;;;;;;;;;;;;20.07;89.00;98585.78;5012507;28;20358;-62
2021/08/05 00:03:43;;;;;;;;;;;;;;;20.04;89.29;98581.59;5025804;28;19920;-62
2021/08/05 00:06:08;;;;;;;;;;;;;;;19.49;91.43;98583.16;5012495;28;19913;-62
2021/08/05 00:08:34;;;;;;;;;;;;;;;18.90;100.00;98583.22;5013271;28;20680;-62
2021/08/05 00:10:59;;;;;;;;;;;;;;;19.07;98.93;98577.59;5012841;28;20004;-62
2021/08/05 00:13:25;;;;;;;;;;;;;;;19.46;95.63;98582.59;5013199;28;19922;-62
2021/08/05 00:15:50;;;;;;;;;;;;;;;20.02;86.44;98575.63;5012875;28;19913;-61
2021/08/05 00:18:16;;;;;;;;;;;;;;;20.11;91.56;98578.50;5012824;28;19914;-61
2021/08/05 00:20:41;;;;;;;;;;;;;;;20.02;89.69;98578.25;5013567;28;20159;-61
2021/08/05 00:23:06;;;;;;;;;;;;;;;19.85;84.27;98574.34;5013635;28;20295;-62
2021/08/05 00:25:32;;;;;;;;;;;;;;;19.82;91.58;98579.00;5004937;28;19963;-62
2021/08/05 00:27:57;;;;;;;;;;;;;;;19.88;93.08;98582.91;5013282;28;19923;-62
2021/08/05 00:30:23;;;;;;;;;;;;;;;20.19;94.41;98586.59;5019784;28;19914;-61
2021/08/05 00:32:48;;;;;;;;;;;;;;;20.09;91.23;98585.63;5013538;28;20359;-62
2021/08/05 00:35:14;;;;;;;;;;;;;;;20.04;97.13;98586.81;5012680;28;19967;-62
2021/08/05 00:37:39;;;;;;;;;;;;;;;19.93;97.68;98581.59;5014815;28;19913;-61
2021/08/05 00:40:05;;;;;;;;;;;;;;;20.05;95.24;98579.81;5007754;28;19960;-62
2021/08/05 00:42:31;;;;;;;;;;;;;;;20.20;94.65;98583.84;4995077;28;20338;-62
2021/08/05 00:44:56;;;;;;;;;;;;;;;20.12;93.30;98582.78;5012752;28;19914;-62
2021/08/05 00:47:21;;;;;;;;;;;;;;;19.86;93.89;98583.00;5019960;28;19917;-62
2021/08/05 00:49:47;;;;;;;;;;;;;;;19.88;90.59;98577.69;5012985;28;19975;-61
2021/08/05 00:52:12;;;;;;;;;;;;;;;19.82;92.62;98579.81;4995590;28;20382;-62
2021/08/05 00:54:37;;;;;;;;;;;;;;;20.03;92.86;98577.31;5012329;28;19917;-62
2021/08/05 00:57:03;;;;;;;;;;;;;;;19.96;95.81;98570.09;5012928;28;19960;-62
2021/08/05 00:59:28;;;;;;;;;;;;;;;19.94;95.16;98572.81;4994714;28;19913;-62
2021/08/05 01:01:56;;;;;;;;;;;;;;;19.74;88.28;98570.91;5012752;28;20409;-62
2021/08/05 01:04:21;;;;;;;;;;;;;;;19.41;94.11;98559.44;4994893;28;20291;-62
2021/08/05 01:06:54;;;;;;;;;;;;;;;18.57;97.67;98561.22;5012567;28;19925;-62
2021/08/05 01:09:19;;;;;;;;;;;;;;;18.80;98.99;98549.97;5001689;28;20294;-62
2021/08/05 01:11:46;;;;;;;;;;;;;;;18.94;96.49;98545.53;4997200;28;19920;-61
2021/08/05 01:14:12;;;;;;;;;;;;;;;18.18;100.00;98548.31;4994088;28;20008;-61
2021/08/05 01:16:38;;;;;;;;;;;;;;;18.28;100.00;98545.03;4994672;28;19921;-62
2021/08/05 01:19:18;;;;;;;;;;;;;;;18.26;100.00;98539.94;4994612;28;19918;-62
2021/08/05 01:22:15;;;;;;;;;;;;;;;18.11;100.00;98533.19;4995602;28;20399;-62
2021/08/05 01:24:41;;;;;;;;;;;;;;;18.02;100.00;98537.28;4982672;28;19920;-61
2021/08/05 01:27:07;;;;;;;;;;;;;;;18.12;100.00;98533.09;5003725;28;19913;-61
2021/08/05 01:29:34;;;;;;;;;;;;;;;19.06;99.57;98539.38;5012395;28;19973;-62
2021/08/05 01:32:01;;;;;;;;;;;;;;;18.39;97.68;98538.13;4994667;28;19966;-62
2021/08/05 01:34:26;;;;;;;;;;;;;;;18.05;100.00;98529.25;4994090;28;19920;-62
2021/08/05 01:36:52;;;;;;;;;;;;;;;17.94;100.00;98529.16;4994505;28;19918;-62
2021/08/05 01:39:17;;;;;;;;;;;;;;;18.62;100.00;98533.03;5012332;28;20518;-62
2021/08/05 01:41:42;;;;;;;;;;;;;;;17.82;100.00;98538.69;5004026;28;20394;-61
2021/08/05 01:44:08;;;;;;;;;;;;;;;17.51;100.00;98532.91;5017646;28;19920;-61
2021/08/05 01:46:34;;;;;;;;;;;;;;;17.62;100.00;98533.97;4990489;28;19914;-61
2021/08/05 01:48:59;;;;;;;;;;;;;;;17.53;100.00;98528.44;5011428;28;20394;-61
2021/08/05 01:51:25;;;;;;;;;;;;;;;17.51;100.00;98522.50;5011648;28;19913;-61
2021/08/05 01:53:50;;;;;;;;;;;;;;;17.88;100.00;98513.97;4994460;28;19952;-62
2021/08/05 01:56:18;;;;;;;;;;;;;;;17.83;100.00;98516.88;5004596;28;19913;-62
2021/08/05 01:58:43;;;;;;;;;;;;;;;17.66;100.00;98522.41;5012395;28;19917;-62
2021/08/05 02:01:09;;;;;;;;;;;;;;;17.71;100.00;98515.94;5015671;28;20382;-62
2021/08/05 02:03:34;;;;;;;;;;;;;;;17.91;100.00;98513.75;5011676;28;19949;-62
2021/08/05 02:06:09;;;;;;;;;;;;;;;17.26;100.00;98512.91;5029896;28;19920;-62
2021/08/05 02:08:37;;;;;;;;;;;;;;;17.73;100.00;98511.47;4994360;28;20387;-62
2021/08/05 02:11:02;;;;;;;;;;;;;;;18.46;100.00;98519.44;4993910;28;19921;-61
2021/08/05 02:13:34;;;;;;;;;;;;;;;18.25;100.00;98517.44;4993374;28;19921;-61
2021/08/05 02:15:59;;;;;;;;;;;;;;;18.30;100.00;98514.50;4978907;28;19917;-62
2021/08/05 02:18:32;;;;;;;;;;;;;;;17.98;100.00;98515.81;5011411;28;19925;-62
2021/08/05 02:20:58;;;;;;;;;;;;;;;17.99;100.00;98511.44;5011641;28;19917;-62
2021/08/05 02:23:25;;;;;;;;;;;;;;;18.28;100.00;98511.97;5010459;28;21254;-62
2021/08/05 02:25:51;;;;;;;;;;;;;;;17.96;100.00;98502.06;5012706;28;19913;-61
2021/08/05 02:28:17;;;;;;;;;;;;;;;18.15;100.00;98500.75;4993632;28;19924;-61
2021/08/05 02:30:42;;;;;;;;;;;;;;;18.39;100.00;98498.19;5011520;28;19953;-62
2021/08/05 02:33:07;;;;;;;;;;;;;;;18.47;100.00;98489.81;5011735;28;19925;-62
2021/08/05 02:35:33;;;;;;;;;;;;;;;18.41;100.00;98495.47;5012995;28;19956;-62
2021/08/05 02:37:59;;;;;;;;;;;;;;;18.33;100.00;98488.19;5011409;28;20004;-62
2021/08/05 02:40:24;;;;;;;;;;;;;;;18.56;100.00;98483.91;4993606;28;19940;-62
2021/08/05 02:42:49;;;;;;;;;;;;;;;18.88;100.00;98488.56;5011321;28;19917;-62
2021/08/05 02:45:15;;;;;;;;;;;;;;;18.37;99.75;98477.44;5010452;28;19922;-61
2021/08/05 02:47:40;;;;;;;;;;;;;;;18.63;100.00;98481.69;4993397;28;19913;-62
2021/08/05 02:50:06;;;;;;;;;;;;;;;18.68;100.00;98483.03;4976998;28;20357;-61
2021/08/05 02:52:32;;;;;;;;;;;;;;;18.98;100.00;98473.91;5011234;28;19917;-61
2021/08/05 02:54:57;;;;;;;;;;;;;;;19.13;96.45;98474.50;5010780;28;20386;-61
2021/08/05 02:57:23;;;;;;;;;;;;;;;18.99;100.00;98475.56;4992891;28;19992;-62
2021/08/05 02:59:49;;;;;;;;;;;;;;;18.75;96.91;98478.19;5011178;28;19918;-62
2021/08/05 03:02:14;;;;;;;;;;;;;;;18.81;97.56;98478.56;4994664;28;19913;-61
2021/08/05 03:04:39;;;;;;;;;;;;;;;18.97;100.00;98469.63;5010832;28;20527;-61
2021/08/05 03:07:05;;;;;;;;;;;;;;;19.07;100.00;98478.44;5010623;28;20282;-62
2021/08/05 03:09:30;;;;;;;;;;;;;;;18.81;98.56;98473.34;4993350;28;19917;-61
2021/08/05 03:11:55;;;;;;;;;;;;;;;18.62;100.00;98473.03;5011091;28;20298;-61
2021/08/05 03:14:21;;;;;;;;;;;;;;;18.96;93.24;98473.19;5010399;28;19928;-62
2021/08/05 03:16:46;;;;;;;;;;;;;;;18.88;98.53;98473.75;5010510;28;19964;-61
2021/08/05 03:19:11;;;;;;;;;;;;;;;18.95;99.38;98481.94;5010611;28;20406;-62
2021/08/05 03:21:37;;;;;;;;;;;;;;;18.66;100.00;98484.91;5010818;28;19922;-61
2021/08/05 03:24:02;;;;;;;;;;;;;;;18.74;99.58;98473.91;5010103;28;19917;-62
2021/08/05 03:26:27;;;;;;;;;;;;;;;18.81;100.00;98478.56;4997414;28;19918;-61
2021/08/05 03:28:53;;;;;;;;;;;;;;;18.94;100.00;98472.47;5014101;28;20012;-61
2021/08/05 03:31:18;;;;;;;;;;;;;;;18.80;100.00;98471.72;5013473;28;20286;-62
2021/08/05 03:33:43;;;;;;;;;;;;;;;18.76;94.72;98472.84;5014016;28;19920;-62
2021/08/05 03:36:09;;;;;;;;;;;;;;;18.77;100.00;98466.72;5014015;28;20021;-62
2021/08/05 03:38:34;;;;;;;;;;;;;;;18.85;100.00;98468.75;5013529;28;19921;-61
2021/08/05 03:41:01;;;;;;;;;;;;;;;18.79;97.73;98464.00;5013839;28;20355;-62
2021/08/05 03:43:26;;;;;;;;;;;;;;;19.12;93.14;98465.84;4996854;28;19917;-61
2021/08/05 03:45:52;;;;;;;;;;;;;;;19.01;100.00;98458.81;5003626;28;19971;-62
2021/08/05 03:48:17;;;;;;;;;;;;;;;19.01;98.78;98455.41;5007696;28;19927;-61
2021/08/05 03:50:42;;;;;;;;;;;;;;;18.86;96.01;98457.41;5017146;28;19913;-62
2021/08/05 03:53:08;;;;;;;;;;;;;;;18.89;100.00;98451.13;5013024;28;20375;-61
2021/08/05 03:55:33;;;;;;;;;;;;;;;19.05;99.87;98446.41;5012617;28;19940;-62
2021/08/05 03:57:58;;;;;;;;;;;;;;;19.09;89.66;98439.16;5013969;28;19913;-62
2021/08/05 04:00:24;;;;;;;;;;;;;;;19.24;94.39;98448.44;5013768;28;20004;-62
2021/08/05 04:02:49;;;;;;;;;;;;;;;19.17;97.51;98442.84;5013752;28;19917;-62
2021/08/05 04:05:14;;;;;;;;;;;;;;;18.85;99.99;98444.44;4995736;28;19913;-62
2021/08/05 04:07:40;;;;;;;;;;;;;;;18.70;96.64;98444.63;5013381;28;19996;-62
2021/08/05 04:10:05;;;;;;;;;;;;;;;18.86;96.62;98444.34;4995786;28;20341;-62
2021/08/05 04:12:31;;;;;;;;;;;;;;;18.74;100.00;98438.22;4979736;28;20450;-62
2021/08/05 04:14:56;;;;;;;;;;;;;;;18.92;99.77;98445.66;5012341;28;19914;-62
2021/08/05 04:17:21;;;;;;;;;;;;;;;18.95;95.88;98438.44;5013086;28;19914;-61
2021/08/05 04:19:47;;;;;;;;;;;;;;;19.23;93.68;98442.38;5018928;28;20386;-62
2021/08/05 04:22:12;;;;;;;;;;;;;;;19.14;96.49;98435.25;5015230;28;20014;-62
2021/08/05 04:24:37;;;;;;;;;;;;;;;19.31;94.30;98443.56;5021542;28;19917;-62
2021/08/05 04:27:04;;;;;;;;;;;;;;;19.30;96.04;98436.69;5012245;28;19948;-64
2021/08/05 04:29:29;;;;;;;;;;;;;;;18.85;97.90;98441.84;5011424;28;19921;-62
2021/08/05 04:31:55;;;;;;;;;;;;;;;19.09;98.46;98439.16;5012045;28;19971;-62
2021/08/05 04:34:20;;;;;;;;;;;;;;;19.00;96.53;98443.31;5011624;28;19996;-62
2021/08/05 04:36:45;;;;;;;;;;;;;;;18.38;100.00;98433.94;5011674;28;20004;-62
2021/08/05 04:39:11;;;;;;;;;;;;;;;18.86;100.00;98444.34;5010612;28;20004;-62
2021/08/05 04:41:36;;;;;;;;;;;;;;;19.12;99.27;98434.53;5012226;28;20688;-62
2021/08/05 04:44:01;;;;;;;;;;;;;;;19.26;97.83;98440.47;4995128;28;19929;-62
2021/08/05 04:46:27;;;;;;;;;;;;;;;19.43;91.75;98434.78;5012612;28;19929;-62
2021/08/05 04:48:52;;;;;;;;;;;;;;;19.29;94.67;98448.91;5012578;28;19918;-62
2021/08/05 04:51:17;;;;;;;;;;;;;;;19.18;99.57;98439.31;5012631;28;20367;-62
2021/08/05 04:53:43;;;;;;;;;;;;;;;18.99;99.04;98433.81;5012457;28;19914;-62
2021/08/05 04:56:08;;;;;;;;;;;;;;;19.16;100.00;98441.19;5012585;28;19977;-62
2021/08/05 04:58:33;;;;;;;;;;;;;;;19.30;96.69;98432.31;5012642;28;20505;-62
2021/08/05 05:00:59;;;;;;;;;;;;;;;19.15;96.50;98433.47;4997053;28;19936;-62
2021/08/05 05:03:24;;;;;;;;;;;;;;;19.55;97.71;98436.44;5012501;28;19913;-62
2021/08/05 05:05:49;;;;;;;;;;;;;;;19.56;97.17;98429.44;4994116;28;20023;-62
2021/08/05 05:08:19;;;;;;;;;;;;;;;19.10;100.00;98423.38;5012344;28;19913;-62
2021/08/05 05:10:44;;;;;;;;;;;;;;;19.35;100.00;98418.88;5014788;28;20310;-62
2021/08/05 05:13:10;;;;;;;;;;;;;;;19.35;100.00;98418.88;5012166;28;19922;-62
2021/08/05 05:15:35;;;;;;;;;;;;;;;19.60;98.41;98423.84;5012372;28;20303;-61
2021/08/05 05:18:01;;;;;;;;;;;;;;;19.49;100.00;98421.25;5012742;28;19917;-62
2021/08/05 05:20:26;;;;;;;;;;;;;;;19.65;96.71;98426.94;4994825;28;19913;-62
2021/08/05 05:22:52;;;;;;;;;;;;;;;19.49;98.63;98426.47;5012185;28;19914;-62
2021/08/05 05:25:17;;;;;;;;;;;;;;;19.73;98.97;98417.69;5012522;28;19922;-62
2021/08/05 05:27:42;;;;;;;;;;;;;;;19.58;99.07;98425.75;5012669;28;20387;-62
2021/08/05 05:30:08;;;;;;;;;;;;;;;19.56;100.00;98421.59;5011988;28;19917;-62
2021/08/05 05:32:33;;;;;;;;;;;;;;;19.47;94.18;98428.38;4994669;28;20318;-62
2021/08/05 05:34:59;;;;;;;;;;;;;;;19.34;100.00;98432.88;5011890;28;20052;-62
2021/08/05 05:37:24;;;;;;;;;;;;;;;19.44;95.81;98433.84;5011515;28;19913;-62
2021/08/05 05:39:50;;;;;;;;;;;;;;;19.87;91.85;98430.50;5011908;28;19964;-62
2021/08/05 05:42:16;;;;;;;;;;;;;;;19.69;96.96;98432.78;5014261;28;20533;-61
2021/08/05 05:44:41;;;;;;;;;;;;;;;20.01;100.00;98435.47;5011864;28;20008;-61
2021/08/05 05:47:06;;;;;;;;;;;;;;;20.09;93.87;98437.44;5011736;28;19919;-62
2021/08/05 05:49:32;;;;;;;;;;;;;;;20.09;86.07;98444.47;4993953;28;19918;-62
2021/08/05 05:51:57;;;;;;;;;;;;;;;19.92;94.43;98441.41;5011589;28;19967;-62
2021/08/05 05:54:22;;;;;;;;;;;;;;;19.71;100.00;98441.34;5002787;28;19917;-62
2021/08/05 05:56:48;;;;;;;;;;;;;;;19.35;100.00;98437.16;5007592;28;19956;-62
2021/08/05 05:59:13;;;;;;;;;;;;;;;19.16;100.00;98450.81;4993653;28;20522;-62
2021/08/05 06:01:38;;;;;;;;;;;;;;;18.74;100.00;98447.81;5011485;28;19949;-62
2021/08/05 06:04:04;;;;;;;;;;;;;;;19.36;100.00;98446.66;5011525;28;19939;-62
2021/08/05 06:06:29;;;;;;;;;;;;;;;20.28;100.00;98449.88;5010537;28;19928;-62
2021/08/05 06:08:56;;;;;;;;;;;;;;;20.26;100.00;98455.22;5011385;28;20311;-62
2021/08/05 06:11:26;;;;;;;;;;;;;;;20.58;95.43;98441.34;5021406;28;20266;-62
2021/08/05 06:13:51;;;;;;;;;;;;;;;20.51;96.51;98441.97;5030576;28;19921;-61
2021/08/05 06:16:16;;;;;;;;;;;;;;;20.25;98.25;98444.88;5014745;28;19936;-62
2021/08/05 06:18:42;;;;;;;;;;;;;;;20.67;97.12;98445.00;5011341;28;19960;-62
2021/08/05 06:21:07;;;;;;;;;;;;;;;20.83;91.21;98448.00;5011286;28;19924;-62
2021/08/05 06:23:32;;;;;;;;;;;;;;;20.89;82.55;98450.13;5010537;28;19957;-62
2021/08/05 06:25:57;;;;;;;;;;;;;;;21.00;85.62;98451.81;5010902;28;20382;-62
2021/08/05 06:28:23;;;;;;;;;;;;;;;20.99;93.93;98449.34;5010441;28;19918;-62
2021/08/05 06:30:48;;;;;;;;;;;;;;;20.82;87.53;98453.34;4993431;28;20333;-62
2021/08/05 06:33:13;;;;;;;;;;;;;;;21.07;85.55;98446.91;5011082;28;20547;-62
2021/08/05 06:35:39;;;;;;;;;;;;;;;20.94;96.12;98451.50;5009315;28;19995;-62
2021/08/05 06:38:04;;;;;;;;;;;;;;;20.86;87.94;98460.81;5011043;28;20008;-62
2021/08/05 06:40:29;;;;;;;;;;;;;;;21.16;89.41;98459.22;5009894;28;19940;-62
2021/08/05 06:42:55;;;;;;;;;;;;;;;21.43;92.95;98452.63;5009992;28;19937;-62
2021/08/05 06:45:21;;;;;;;;;;;;;;;21.03;95.04;98442.91;5010267;28;19913;-62
2021/08/05 06:47:46;;;;;;;;;;;;;;;20.89;93.98;98449.28;5010671;28;19993;-62
2021/08/05 06:50:12;;;;;;;;;;;;;;;21.47;87.26;98443.56;5010487;28;20009;-62
2021/08/05 06:52:37;;;;;;;;;;;;;;;21.15;98.32;98452.34;5010544;28;19956;-62
2021/08/05 06:55:03;;;;;;;;;;;;;;;21.54;89.69;98449.94;5010795;28;19914;-61
2021/08/05 06:57:28;;;;;;;;;;;;;;;21.47;91.78;98447.00;4992713;28;19913;-62
2021/08/05 06:59:53;;;;;;;;;;;;;;;21.50;96.81;98449.34;5009337;28;20016;-62
2021/08/05 07:02:19;;;;;;;;;;;;;;;20.56;100.00;98460.72;5010473;28;19956;-62
2021/08/05 07:04:44;;;;;;;;;;;;;;;20.14;100.00;98456.22;5010563;28;20630;-61
2021/08/05 07:07:09;;;;;;;;;;;;;;;20.87;100.00;98454.66;5010175;28;19913;-61
2021/08/05 07:09:35;;;;;;;;;;;;;;;21.49;98.52;98446.88;5010661;28;19960;-62
2021/08/05 07:12:00;;;;;;;;;;;;;;;21.87;89.62;98447.94;5010918;28;19913;-61
2021/08/05 07:14:25;;;;;;;;;;;;;;;21.70;93.41;98450.25;5009905;28;20025;-62
2021/08/05 07:16:51;;;;;;;;;;;;;;;21.63;96.22;98458.78;4989909;28;19914;-62
2021/08/05 07:19:16;;;;;;;;;;;;;;;20.35;100.00;98461.50;5008026;28;19914;-62
2021/08/05 07:21:41;;;;;;;;;;;;;;;20.67;100.00;98456.28;5007726;28;19921;-62
2021/08/05 07:24:07;;;;;;;;;;;;;;;21.59;97.12;98447.72;5008232;28;20636;-61
2021/08/05 07:26:32;;;;;;;;;;;;;;;21.86;93.40;98455.00;4991810;28;19920;-62
2021/08/05 07:28:58;;;;;;;;;;;;;;;21.79;91.77;98447.81;4983870;28;20399;-61
2021/08/05 07:31:23;;;;;;;;;;;;;;;22.37;87.86;98450.53;5010697;28;19914;-62
2021/08/05 07:33:50;;;;;;;;;;;;;;;22.05;91.88;98443.72;4976845;28;19914;-62
2021/08/05 07:36:16;;;;;;;;;;;;;;;22.44;90.81;98443.81;5010561;28;19914;-62
2021/08/05 07:38:41;;;;;;;;;;;;;;;21.86;90.02;98446.31;5010247;28;19914;-62
2021/08/05 07:41:07;;;;;;;;;;;;;;;22.29;88.29;98446.00;5010501;28;20181;-62
2021/08/05 07:43:32;;;;;;;;;;;;;;;22.40;89.49;98444.19;5010320;28;19913;-61
2021/08/05 07:45:58;;;;;;;;;;;;;;;22.65;87.78;98450.66;5014254;28;20000;-62
2021/08/05 07:48:23;;;;;;;;;;;;;;;22.20;90.48;98451.19;5010075;28;19913;-62
2021/08/05 07:50:48;;;;;;;;;;;;;;;21.89;94.54;98449.47;5008914;28;20498;-62
2021/08/05 07:53:13;;;;;;;;;;;;;;;22.18;93.07;98447.88;5009812;28;19913;-62
2021/08/05 07:55:39;;;;;;;;;;;;;;;22.82;87.77;98452.59;5009832;28;19914;-62
2021/08/05 07:58:04;;;;;;;;;;;;;;;22.10;91.89;98444.16;5010315;28;19913;-62
2021/08/05 08:00:34;;;;;;;;;;;;;;;22.46;89.04;98441.84;5010470;28;20696;-62
2021/08/05 08:03:00;;;;;;;;;;;;;;;22.47;86.19;98438.25;5006593;28;19936;-62
2021/08/05 08:05:25;;;;;;;;;;;;;;;22.50;87.21;98440.59;4992363;28;19992;-62
2021/08/05 08:07:51;;;;;;;;;;;;;;;22.79;87.29;98447.63;5010069;28;20294;-62
2021/08/05 08:10:16;;;;;;;;;;;;;;;22.74;85.43;98445.44;5010141;28;19918;-62
2021/08/05 08:12:42;;;;;;;;;;;;;;;23.26;85.34;98436.34;5013013;28;19914;-61
2021/08/05 08:15:07;;;;;;;;;;;;;;;22.49;82.24;98438.97;5013330;28;20306;-62
2021/08/05 08:17:33;;;;;;;;;;;;;;;23.45;80.91;98443.34;5013143;28;19945;-62
2021/08/05 08:19:58;;;;;;;;;;;;;;;23.72;80.19;98434.63;5014722;28;19952;-62
2021/08/05 08:22:24;;;;;;;;;;;;;;;23.91;80.28;98436.38;5014721;28;19921;-62
2021/08/05 08:24:49;;;;;;;;;;;;;;;24.08;81.58;98438.19;5012874;28;19924;-62
2021/08/05 08:27:14;;;;;;;;;;;;;;;24.16;76.66;98434.81;5012620;28;19917;-62
2021/08/05 08:29:40;;;;;;;;;;;;;;;24.05;76.32;98435.84;5012642;28;19943;-62
2021/08/05 08:32:05;;;;;;;;;;;;;;;23.65;74.28;98426.53;5012859;28;20314;-62
2021/08/05 08:34:30;;;;;;;;;;;;;;;23.78;76.67;98432.28;5013033;28;19920;-62
2021/08/05 08:36:56;;;;;;;;;;;;;;;23.30;79.45;98424.59;5014811;28;19913;-62
2021/08/05 08:39:23;;;;;;;;;;;;;;;22.19;80.14;98420.69;5013373;28;19913;-61
2021/08/05 08:41:49;;;;;;;;;;;;;;;22.70;83.95;98424.84;5012516;28;19964;-61
2021/08/05 08:44:14;;;;;;;;;;;;;;;22.32;87.01;98423.91;5011868;28;19921;-62
2021/08/05 08:46:40;;;;;;;;;;;;;;;22.48;84.37;98418.91;5013415;28;19913;-61
2021/08/05 08:49:05;;;;;;;;;;;;;;;24.26;75.55;98418.97;4995813;28;19924;-61
2021/08/05 08:51:31;;;;;;;;;;;;;;;24.12;75.84;98421.13;5012363;28;19920;-61
2021/08/05 08:53:58;;;;;;;;;;;;;;;24.26;72.04;98416.31;5010783;28;19924;-61
2021/08/05 08:56:24;;;;;;;;;;;;;;;24.95;70.91;98412.97;4995888;28;19913;-61
2021/08/05 08:58:50;;;;;;;;;;;;;;;25.18;69.57;98412.41;4978988;28;19925;-61
2021/08/05 09:01:16;;;;;;;;;;;;;;;24.68;66.76;98411.28;5000925;28;19951;-61
2021/08/05 09:03:41;;;;;;;;;;;;;;;25.50;72.05;98408.31;5012715;28;19949;-61
2021/08/05 09:06:06;;;;;;;;;;;;;;;23.89;75.30;98419.91;4993664;28;20315;-61
2021/08/05 09:08:32;;;;;;;;;;;;;;;25.14;74.43;98411.09;5012615;28;19929;-61
2021/08/05 09:10:57;;;;;;;;;;;;;;;24.68;73.16;98413.06;5017020;28;20303;-61
2021/08/05 09:13:22;;;;;;;;;;;;;;;22.36;81.42;98414.78;5011702;28;20031;-61
2021/08/05 09:15:48;;;;;;;;;;;;;;;23.16;75.69;98413.56;5012378;28;19914;-61
2021/08/05 09:18:35;;;;;;;;;;;;;;;23.42;81.74;98406.84;5006025;28;19914;-61
2021/08/05 09:21:04;;;;;;;;;;;;;;;24.40;73.39;98405.25;4983199;28;19917;-61
2021/08/05 09:23:44;;;;;;;;;;;;;;;23.80;75.23;98411.94;5017108;28;19963;-61
2021/08/05 09:26:20;;;;;;;;;;;;;;;25.75;69.55;98399.53;4993442;28;19914;-61
2021/08/05 09:28:49;;;;;;;;;;;;;;;24.44;70.00;98403.97;4993387;28;19918;-62
2021/08/05 09:31:15;;;;;;;;;;;;;;;25.74;66.05;98403.13;4998830;28;19917;-61
2021/08/05 09:33:40;;;;;;;;;;;;;;;25.24;67.68;98398.66;5008757;28;20386;-61
2021/08/05 09:36:22;;;;;;;;;;;;;;;27.36;60.96;98393.75;4993499;28;19999;-61
2021/08/05 09:38:47;;;;;;;;;;;;;;;27.19;52.04;98398.25;4989561;28;19913;-61
2021/08/05 09:41:14;;;;;;;;;;;;;;;27.02;56.64;98385.06;5011753;28;19914;-62
2021/08/05 09:43:40;;;;;;;;;;;;;;;27.85;50.36;98382.94;5010594;28;19920;-61
2021/08/05 09:46:05;;;;;;;;;;;;;;;27.51;52.47;98378.81;5009283;28;19913;-61
2021/08/05 09:48:35;;;;;;;;;;;;;;;28.46;46.08;98388.31;4990321;28;19922;-61
2021/08/05 09:51:03;;;;;;;;;;;;;;;29.01;51.55;98373.88;5008234;28;20276;-61
2021/08/05 09:53:29;;;;;;;;;;;;;;;28.10;45.54;98378.31;5008930;28;20419;-61
2021/08/05 09:56:07;;;;;;;;;;;;;;;28.51;49.21;98378.03;4990543;28;20047;-61
2021/08/05 09:58:32;;;;;;;;;;;;;;;28.16;43.26;98380.25;4993047;28;19913;-61
2021/08/05 10:00:57;;;;;;;;;;;;;;;27.32;50.98;98374.75;5010876;28;19924;-61
2021/08/05 10:03:33;;;;;;;;;;;;;;;27.57;47.40;98374.66;4993717;28;19997;-61
2021/08/05 10:06:01;;;;;;;;;;;;;;;26.32;44.52;98371.56;5008311;28;19913;-61
2021/08/05 10:08:33;;;;;;;;;;;;;;;28.11;43.10;98378.16;5008993;28;19968;-61
2021/08/05 10:10:58;;;;;;;;;;;;;;;28.63;45.69;98370.50;5008734;28;19917;-61
2021/08/05 10:13:42;;;;;;;;;;;;;;;27.73;45.97;98364.81;5009797;28;19925;-61
2021/08/05 10:16:08;;;;;;;;;;;;;;;27.83;51.71;98369.06;5008109;28;19936;-61
2021/08/05 10:18:35;;;;;;;;;;;;;;;29.58;44.33;98364.44;5009733;28;20000;-61
2021/08/05 10:21:02;;;;;;;;;;;;;;;30.52;43.51;98360.91;4990357;28;19921;-60
2021/08/05 10:23:28;;;;;;;;;;;;;;;30.21;49.48;98360.22;5006690;28;19913;-60
2021/08/05 10:25:57;;;;;;;;;;;;;;;30.32;43.97;98360.75;5008035;28;20425;-61
2021/08/05 10:28:23;;;;;;;;;;;;;;;27.97;41.18;98354.28;4991584;28;20276;-60
2021/08/05 10:30:49;;;;;;;;;;;;;;;30.17;40.06;98356.28;4991675;28;19924;-61
2021/08/05 10:33:14;;;;;;;;;;;;;;;28.73;43.27;98355.13;5009022;28;19914;-61
2021/08/05 10:35:40;;;;;;;;;;;;;;;28.59;43.61;98359.41;5008958;28;20326;-61
2021/08/05 10:38:05;;;;;;;;;;;;;;;31.05;37.60;98340.03;5011286;28;19928;-61
2021/08/05 10:40:31;;;;;;;;;;;;;;;30.88;42.98;98341.34;5011500;28;19917;-61
2021/08/05 10:42:57;;;;;;;;;;;;;;;31.04;37.76;98333.88;4993306;28;19913;-61
2021/08/05 10:45:22;;;;;;;;;;;;;;;31.66;36.50;98342.75;5011297;28;19929;-61
2021/08/05 10:47:48;;;;;;;;;;;;;;;32.18;39.06;98332.38;5011273;28;19968;-61
2021/08/05 10:50:14;;;;;;;;;;;;;;;31.54;37.40;98335.53;5011378;28;19918;-61
2021/08/05 10:52:41;;;;;;;;;;;;;;;32.60;36.71;98327.69;4993587;28;20052;-60
2021/08/05 10:55:22;;;;;;;;;;;;;;;32.16;36.55;98325.63;5011535;28;20323;-61
2021/08/05 10:58:07;;;;;;;;;;;;;;;31.31;37.84;98317.22;5011025;28;20307;-61
2021/08/05 11:00:51;;;;;;;;;;;;;;;29.54;42.67;98318.91;5008767;28;19914;-61
2021/08/05 11:03:31;;;;;;;;;;;;;;;29.26;41.65;98312.63;5008451;28;20415;-61
2021/08/05 11:05:57;;;;;;;;;;;;;;;30.10;38.12;98312.09;5008122;28;19927;-61
2021/08/05 11:08:23;;;;;;;;;;;;;;;28.90;39.07;98313.41;5011274;28;20370;-61
2021/08/05 11:10:48;;;;;;;;;;;;;;;30.87;41.84;98313.94;4993211;28;19920;-61
2021/08/05 11:13:16;;;;;;;;;;;;;;;31.37;35.96;98311.09;5010534;28;19922;-61
2021/08/05 11:15:41;;;;;;;;;;;;;;;30.02;34.83;98300.63;5024917;28;19962;-61
2021/08/05 11:18:16;;;;;;;;;;;;;;;32.68;39.92;98299.97;5030659;28;19921;-61
2021/08/05 11:21:05;;;;;;;;;;;;;;;31.81;32.77;98301.81;5014130;28;20415;-60
2021/08/05 11:23:34;;;;;;;;;;;;;;;30.95;43.87;98307.63;5001445;28;20319;-61
2021/08/05 11:26:00;;;;;;;;;;;;;;;31.87;36.58;98301.00;5010866;28;19914;-61
2021/08/05 11:28:40;;;;;;;;;;;;;;;31.42;37.67;98303.38;5010065;28;19914;-60
2021/08/05 11:31:07;;;;;;;;;;;;;;;30.37;35.65;98303.38;5007408;28;19913;-61
2021/08/05 11:33:39;;;;;;;;;;;;;;;29.04;38.21;98299.31;5009551;28;19963;-61
2021/08/05 11:36:11;;;;;;;;;;;;;;;30.81;42.98;98293.41;5009866;28;20280;-61
2021/08/05 11:38:54;;;;;;;;;;;;;;;31.70;36.01;98291.75;5005307;28;19913;-62
2021/08/05 11:41:38;;;;;;;;;;;;;;;29.79;37.47;98286.72;5004363;28;19952;-62
2021/08/05 11:44:22;;;;;;;;;;;;;;;26.60;45.40;98288.41;5003583;28;19921;-62
2021/08/05 11:47:07;;;;;;;;;;;;;;;25.04;51.75;98285.56;5006795;28;20016;-62
2021/08/05 11:49:33;;;;;;;;;;;;;;;25.33;51.18;98284.38;4989570;28;20383;-61
2021/08/05 11:51:58;;;;;;;;;;;;;;;25.99;48.83;98285.31;5008143;28;19917;-61
2021/08/05 11:54:24;;;;;;;;;;;;;;;25.15;52.82;98283.63;4991497;28;20274;-61
2021/08/05 11:57:01;;;;;;;;;;;;;;;24.72;55.59;98280.13;4989905;28;19914;-61
2021/08/05 11:59:37;;;;;;;;;;;;;;;24.74;55.44;98279.00;5005007;28;19914;-60
2021/08/05 12:02:03;;;;;;;;;;;;;;;25.33;53.69;98281.72;5002142;28;19917;-61
2021/08/05 12:04:28;;;;;;;;;;;;;;;24.99;59.27;98274.66;5004470;28;20012;-61
2021/08/05 12:07:14;;;;;;;;;;;;;;;24.35;67.90;98273.31;5004256;28;20028;-60
2021/08/05 12:09:39;;;;;;;;;;;;;;;24.24;80.49;98265.66;5005227;28;19922;-60
2021/08/05 12:12:05;;;;;;;;;;;;;;;24.93;79.01;98262.16;5006596;28;19913;-61
2021/08/05 12:14:30;;;;;;;;;;;;;;;24.39;78.17;98275.47;5008495;28;20342;-61
2021/08/05 12:16:55;;;;;;;;;;;;;;;24.09;80.63;98268.88;4990575;28;20368;-61
2021/08/05 12:19:20;;;;;;;;;;;;;;;24.33;79.47;98268.19;5007864;28;19917;-61
2021/08/05 12:21:46;;;;;;;;;;;;;;;23.68;84.00;98265.03;5007554;28;19952;-60
2021/08/05 12:24:12;;;;;;;;;;;;;;;24.50;82.92;98261.28;4990019;28;20397;-61
2021/08/05 12:26:37;;;;;;;;;;;;;;;24.47;84.37;98269.47;5008481;28;20012;-61
2021/08/05 12:29:11;;;;;;;;;;;;;;;24.79;79.37;98266.22;5007789;28;19928;-60
2021/08/05 12:31:37;;;;;;;;;;;;;;;26.32;72.70;98256.28;5006187;28;19917;-61
2021/08/05 12:34:02;;;;;;;;;;;;;;;26.38;70.36;98257.41;5006517;28;19921;-60
2021/08/05 12:36:28;;;;;;;;;;;;;;;26.94;63.94;98265.34;5007575;28;19921;-60
2021/08/05 12:39:00;;;;;;;;;;;;;;;28.24;63.90;98250.47;5008860;28;19917;-61
2021/08/05 12:41:25;;;;;;;;;;;;;;;27.85;64.42;98254.13;4990986;28;19996;-61
2021/08/05 12:43:51;;;;;;;;;;;;;;;28.37;59.90;98249.81;4992605;28;20008;-61